createdAt,value
2023-04-26T00:02:10.494Z,101510.23
2023-04-26T00:04:39.707Z,101508.02
2023-04-26T00:07:09.044Z,101511.52
2023-04-26T00:09:37.248Z,101506.15
2023-04-26T00:12:05.418Z,101510.11
2023-04-26T00:14:33.450Z,101518.45
2023-04-26T00:17:01.560Z,101506.54
2023-04-26T00:19:29.733Z,101516.84
2023-04-26T00:21:58.080Z,101531.39
2023-04-26T00:24:26.092Z,101529.17
2023-04-26T00:26:57.438Z,101530.31
2023-04-26T00:29:25.557Z,101529.46
2023-04-26T00:31:53.678Z,101534.86
2023-04-26T00:34:21.914Z,101536.55
2023-04-26T00:36:49.893Z,101538.00
2023-04-26T00:39:17.923Z,101535.25
2023-04-26T00:41:45.964Z,101533.59
2023-04-26T00:44:14.133Z,101526.29
2023-04-26T00:46:42.895Z,101527.53
2023-04-26T00:49:14.027Z,101522.79
2023-04-26T00:51:42.121Z,101530.25
2023-04-26T00:54:10.249Z,101532.57
2023-04-26T00:56:38.699Z,101521.52
2023-04-26T00:59:06.796Z,101533.48
2023-04-26T01:01:34.989Z,101526.98
2023-04-26T01:04:03.907Z,101526.36
2023-04-26T01:06:37.162Z,101530.64
2023-04-26T01:09:06.502Z,101526.42
2023-04-26T01:11:34.563Z,101534.73
2023-04-26T01:14:02.618Z,101524.63
2023-04-26T01:16:30.808Z,101535.91
2023-04-26T01:18:59.291Z,101533.06
2023-04-26T01:21:27.634Z,101533.55
2023-04-26T01:23:55.649Z,101536.39
2023-04-26T01:26:24.395Z,101537.27
2023-04-26T01:28:52.550Z,101534.73
2023-04-26T01:31:20.843Z,101533.35
2023-04-26T01:33:49.033Z,101532.50
2023-04-26T01:36:17.056Z,101533.35
2023-04-26T01:38:45.148Z,101537.02
2023-04-26T01:41:13.201Z,101536.20
2023-04-26T01:43:41.148Z,101537.63
2023-04-26T01:46:09.243Z,101538.52
2023-04-26T01:48:37.323Z,101537.63
2023-04-26T01:51:05.758Z,101534.30
2023-04-26T01:53:33.803Z,101536.91
2023-04-26T01:56:05.130Z,101534.59
2023-04-26T01:58:33.249Z,101534.07
2023-04-26T02:01:10.594Z,101530.61
2023-04-26T02:03:38.869Z,101527.24
2023-04-26T02:06:07.016Z,101529.23
2023-04-26T02:08:35.242Z,101534.59
2023-04-26T02:11:03.275Z,101528.91
2023-04-26T02:13:31.565Z,101529.46
2023-04-26T02:16:00.596Z,101527.77
2023-04-26T02:18:29.039Z,101528.61
2023-04-26T02:20:57.108Z,101518.48
2023-04-26T02:23:25.707Z,101513.93
2023-04-26T02:25:53.815Z,101514.81
2023-04-26T02:28:22.394Z,101507.98
2023-04-26T02:30:51.188Z,101505.34
2023-04-26T02:33:19.222Z,101504.58
2023-04-26T02:35:47.496Z,101510.04
2023-04-26T02:38:15.679Z,101507.06
2023-04-26T02:40:43.855Z,101506.77
2023-04-26T02:43:11.879Z,101509.13
2023-04-26T02:45:44.429Z,101507.46
2023-04-26T02:48:12.493Z,101513.15
2023-04-26T02:50:40.539Z,101506.28
2023-04-26T02:53:08.698Z,101513.15
2023-04-26T02:55:36.668Z,101504.05
2023-04-26T02:58:04.729Z,101508.99
2023-04-26T03:00:32.815Z,101505.92
2023-04-26T03:03:01.178Z,101510.76
2023-04-26T03:05:29.363Z,101514.42
2023-04-26T03:07:57.429Z,101511.91
2023-04-26T03:10:25.368Z,101513.93
2023-04-26T03:12:53.414Z,101512.76
2023-04-26T03:15:21.430Z,101506.18
2023-04-26T03:17:49.529Z,101507.00
2023-04-26T03:20:17.930Z,101509.84
2023-04-26T03:22:46.042Z,101506.18
2023-04-26T03:25:14.551Z,101511.22
2023-04-26T03:27:42.583Z,101508.90
2023-04-26T03:30:10.996Z,101509.75
2023-04-26T03:32:39.881Z,101506.05
2023-04-26T03:35:08.087Z,101513.21
2023-04-26T03:37:36.056Z,101511.52
2023-04-26T03:40:04.281Z,101518.97
2023-04-26T03:42:32.477Z,101521.26
2023-04-26T03:45:00.542Z,101516.81
2023-04-26T03:47:28.649Z,101512.92
2023-04-26T03:49:56.811Z,101511.84
2023-04-26T03:52:24.834Z,101502.55
2023-04-26T03:54:52.858Z,101514.00
2023-04-26T03:57:20.857Z,101514.81
2023-04-26T03:59:49.383Z,101505.40
2023-04-26T04:02:17.933Z,101514.42
2023-04-26T04:04:46.111Z,101516.16
2023-04-26T04:07:14.383Z,101516.16
2023-04-26T04:09:42.536Z,101507.52
2023-04-26T04:12:10.527Z,101505.53
2023-04-26T04:14:38.633Z,101504.91
2023-04-26T04:17:06.854Z,101498.95
2023-04-26T04:19:34.845Z,101495.79
2023-04-26T04:22:02.839Z,101504.32
2023-04-26T04:24:32.299Z,101501.48
2023-04-26T04:27:03.007Z,101503.70
2023-04-26T04:29:31.308Z,101504.32
2023-04-26T04:31:59.716Z,101514.20
2023-04-26T04:34:27.790Z,101516.16
2023-04-26T04:36:56.276Z,101516.65
2023-04-26T04:39:24.292Z,101512.07
2023-04-26T04:41:52.724Z,101514.69
2023-04-26T04:44:20.843Z,101507.63
2023-04-26T04:46:48.864Z,101512.13
2023-04-26T04:49:17.374Z,101513.93
2023-04-26T04:51:45.447Z,101508.54
2023-04-26T04:54:22.602Z,101517.89
2023-04-26T04:56:50.528Z,101516.74
2023-04-26T04:59:18.655Z,101518.45
2023-04-26T05:01:46.796Z,101518.15
2023-04-26T05:04:15.025Z,101512.13
2023-04-26T05:06:43.437Z,101525.64
2023-04-26T05:09:11.847Z,101520.73
2023-04-26T05:11:40.014Z,101516.68
2023-04-26T05:14:08.118Z,101521.42
2023-04-26T05:16:36.388Z,101520.80
2023-04-26T05:19:06.197Z,101526.68
2023-04-26T05:21:36.111Z,101523.55
2023-04-26T05:24:04.751Z,101520.93
2023-04-26T05:26:32.790Z,101531.06
2023-04-26T05:29:00.911Z,101536.10
2023-04-26T05:31:29.058Z,101524.43
2023-04-26T05:33:57.353Z,101526.65
2023-04-26T05:36:26.414Z,101533.48
2023-04-26T05:38:55.458Z,101540.77
2023-04-26T05:41:23.551Z,101534.23
2023-04-26T05:43:52.109Z,101537.51
2023-04-26T05:46:20.277Z,101532.66
2023-04-26T05:48:48.440Z,101536.88
2023-04-26T05:51:16.468Z,101542.45
2023-04-26T05:53:44.556Z,101529.95
2023-04-26T05:56:12.638Z,101540.58
2023-04-26T05:58:40.782Z,101543.75
2023-04-26T06:01:08.897Z,101538.48
2023-04-26T06:03:37.204Z,101548.95
2023-04-26T06:06:05.696Z,101538.95
2023-04-26T06:08:33.876Z,101539.47
2023-04-26T06:11:01.954Z,101536.62
2023-04-26T06:13:30.023Z,101538.55
2023-04-26T06:15:58.093Z,101537.70
2023-04-26T06:18:26.226Z,101544.99
2023-04-26T06:20:54.222Z,101556.70
2023-04-26T06:23:22.281Z,101545.19
2023-04-26T06:25:50.290Z,101544.83
2023-04-26T06:28:18.347Z,101540.28
2023-04-26T06:30:46.445Z,101540.80
2023-04-26T06:33:14.509Z,101555.55
2023-04-26T06:35:42.923Z,101554.57
2023-04-26T06:38:11.010Z,101559.15
2023-04-26T06:40:39.169Z,101559.74
2023-04-26T06:43:07.305Z,101556.38
2023-04-26T06:45:35.437Z,101559.80
2023-04-26T06:48:04.943Z,101561.90
2023-04-26T06:50:33.067Z,101563.20
2023-04-26T06:53:01.162Z,101565.20
2023-04-26T06:55:29.318Z,101568.99
2023-04-26T06:57:58.324Z,101569.35
2023-04-26T07:00:26.435Z,101569.84
2023-04-26T07:02:54.585Z,101570.37
2023-04-26T07:05:22.851Z,101563.07
2023-04-26T07:07:51.544Z,101559.34
2023-04-26T07:10:19.733Z,101568.70
2023-04-26T07:12:47.844Z,101553.00
2023-04-26T07:15:15.869Z,101550.29
2023-04-26T07:17:43.877Z,101556.86
2023-04-26T07:20:12.205Z,101553.49
2023-04-26T07:22:40.554Z,101551.40
2023-04-26T07:25:08.865Z,101551.47
2023-04-26T07:27:36.844Z,101545.16
2023-04-26T07:30:06.573Z,101551.23
2023-04-26T07:32:34.665Z,101539.70
2023-04-26T07:35:02.699Z,101542.31
2023-04-26T07:37:30.754Z,101537.96
2023-04-26T07:39:58.834Z,101539.04
2023-04-26T07:42:26.950Z,101536.88
2023-04-26T07:44:54.998Z,101535.38
2023-04-26T07:47:23.217Z,101529.66
2023-04-26T07:49:55.007Z,101532.66
2023-04-26T07:52:23.114Z,101529.49
2023-04-26T07:54:51.357Z,101535.05
2023-04-26T07:57:19.301Z,101531.98
2023-04-26T07:59:47.354Z,101532.27
2023-04-26T08:02:15.397Z,101531.75
2023-04-26T08:04:49.968Z,101528.58
2023-04-26T08:07:18.383Z,101524.52
2023-04-26T08:09:46.882Z,101530.90
2023-04-26T08:12:15.031Z,101530.12
2023-04-26T08:14:43.087Z,101524.52
2023-04-26T08:17:11.356Z,101527.11
2023-04-26T08:19:39.664Z,101522.73
2023-04-26T08:22:07.963Z,101517.10
2023-04-26T08:24:35.971Z,101520.83
2023-04-26T08:27:04.908Z,101522.70
2023-04-26T08:29:33.204Z,101524.03
2023-04-26T08:32:01.449Z,101516.84
2023-04-26T08:34:30.751Z,101518.45
2023-04-26T08:36:58.707Z,101523.48
2023-04-26T08:39:26.833Z,101529.13
2023-04-26T08:41:56.564Z,101533.48
2023-04-26T08:44:25.818Z,101534.27
2023-04-26T08:47:08.206Z,101536.03
2023-04-26T08:49:43.702Z,101526.16
2023-04-26T08:52:15.167Z,101543.72
2023-04-26T08:54:43.372Z,101535.74
2023-04-26T08:57:11.713Z,101534.76
2023-04-26T08:59:40.019Z,101537.54
2023-04-26T09:02:08.643Z,101541.16
2023-04-26T09:04:37.798Z,101547.48
2023-04-26T09:07:06.334Z,101542.15
2023-04-26T09:09:39.194Z,101540.61
2023-04-26T09:12:07.650Z,101543.75
2023-04-26T09:14:35.881Z,101545.68
2023-04-26T09:17:03.930Z,101547.97
2023-04-26T09:19:38.953Z,101548.20
2023-04-26T09:22:07.909Z,101540.80
2023-04-26T09:24:53.541Z,101541.52
2023-04-26T09:27:22.138Z,101536.49
2023-04-26T09:30:01.092Z,101539.40
2023-04-26T09:32:30.560Z,101538.72
2023-04-26T09:34:58.561Z,101547.38
2023-04-26T09:37:26.713Z,101543.72
2023-04-26T09:39:54.770Z,101535.58
2023-04-26T09:42:22.905Z,101534.79
2023-04-26T09:44:50.942Z,101529.66
2023-04-26T09:47:19.183Z,101526.45
2023-04-26T09:49:52.877Z,101526.68
2023-04-26T09:52:21.081Z,101524.46
2023-04-26T09:54:55.606Z,101520.60
2023-04-26T09:57:23.908Z,101525.27
2023-04-26T09:59:55.401Z,101518.22
2023-04-26T10:02:28.284Z,101513.34
2023-04-26T10:04:58.032Z,101510.20
2023-04-26T10:07:27.585Z,101504.25
2023-04-26T10:09:56.049Z,101500.43
2023-04-26T10:12:24.228Z,101510.11
2023-04-26T10:14:52.502Z,101511.87
2023-04-26T10:17:20.683Z,101508.02
2023-04-26T10:19:48.727Z,101511.84
2023-04-26T10:22:19.313Z,101511.58
2023-04-26T10:24:47.528Z,101516.65
2023-04-26T10:27:15.642Z,101518.37
2023-04-26T10:29:55.691Z,101518.09
2023-04-26T10:32:24.097Z,101509.48
2023-04-26T10:35:31.996Z,101505.30
2023-04-26T10:38:02.773Z,101496.21
2023-04-26T10:40:34.110Z,101483.36
2023-04-26T10:43:11.361Z,101472.15
2023-04-26T10:45:40.838Z,101481.46
2023-04-26T10:48:15.778Z,101475.61
2023-04-26T10:51:20.091Z,101472.38
2023-04-26T10:53:48.398Z,101464.49
2023-04-26T10:56:25.846Z,101463.74
2023-04-26T10:59:28.443Z,101463.55
2023-04-26T11:01:57.183Z,101462.60
2023-04-26T11:04:25.315Z,101455.73
2023-04-26T11:06:54.540Z,101449.26
2023-04-26T11:09:51.919Z,101455.60
2023-04-26T11:12:19.920Z,101447.82
2023-04-26T11:14:48.070Z,101446.91
2023-04-26T11:17:16.421Z,101438.86
2023-04-26T11:19:44.502Z,101433.80
2023-04-26T11:22:12.746Z,101437.62
2023-04-26T11:24:40.751Z,101434.16
2023-04-26T11:27:12.781Z,101430.49
2023-04-26T11:29:40.804Z,101433.70
2023-04-26T11:32:09.400Z,101429.84
2023-04-26T11:34:38.283Z,101438.80
2023-04-26T11:37:09.184Z,101442.03
2023-04-26T11:39:38.261Z,101431.30
2023-04-26T11:42:10.250Z,101426.83
2023-04-26T11:44:39.049Z,101428.37
2023-04-26T11:47:07.619Z,101421.92
2023-04-26T11:49:37.995Z,101418.52
2023-04-26T11:52:06.615Z,101420.32
2023-04-26T11:54:36.020Z,101419.77
2023-04-26T11:57:16.685Z,101423.79
2023-04-26T11:59:45.415Z,101427.71
2023-04-26T12:02:13.761Z,101432.19
2023-04-26T12:04:42.473Z,101416.04
2023-04-26T12:07:10.934Z,101421.27
2023-04-26T12:09:42.423Z,101423.27
2023-04-26T12:12:10.516Z,101428.86
2023-04-26T12:14:39.807Z,101431.90
2023-04-26T12:17:09.160Z,101433.95
2023-04-26T12:19:40.442Z,101420.23
2023-04-26T12:22:08.717Z,101422.77
2023-04-26T12:24:39.882Z,101432.48
2023-04-26T12:27:10.864Z,101432.48
2023-04-26T12:29:38.943Z,101438.99
2023-04-26T12:32:07.690Z,101426.57
2023-04-26T12:34:36.071Z,101435.16
2023-04-26T12:37:04.783Z,101422.58
2023-04-26T12:39:32.857Z,101424.70
2023-04-26T12:42:00.867Z,101426.27
2023-04-26T12:44:28.918Z,101418.46
2023-04-26T12:46:57.254Z,101421.34
2023-04-26T12:49:25.324Z,101419.67
2023-04-26T12:51:53.586Z,101417.84
2023-04-26T12:54:21.597Z,101414.60
2023-04-26T12:56:49.934Z,101413.98
2023-04-26T12:59:18.257Z,101413.29
2023-04-26T13:01:46.328Z,101413.42
2023-04-26T13:04:14.549Z,101409.37
2023-04-26T13:06:42.651Z,101405.77
2023-04-26T13:09:10.760Z,101401.06
2023-04-26T13:11:38.863Z,101394.95
2023-04-26T13:14:08.282Z,101401.88
2023-04-26T13:16:36.494Z,101393.48
2023-04-26T13:19:04.588Z,101396.88
2023-04-26T13:21:33.091Z,101394.66
2023-04-26T13:24:01.234Z,101395.73
2023-04-26T13:26:29.718Z,101398.91
2023-04-26T13:28:57.825Z,101400.97
2023-04-26T13:31:26.339Z,101392.17
2023-04-26T13:33:54.494Z,101395.70
2023-04-26T13:36:22.542Z,101391.29
2023-04-26T13:38:50.749Z,101388.70
2023-04-26T13:41:18.781Z,101384.98
2023-04-26T13:43:46.992Z,101385.89
2023-04-26T13:46:15.060Z,101386.45
2023-04-26T13:48:43.064Z,101384.26
2023-04-26T13:51:11.251Z,101372.91
2023-04-26T13:53:39.271Z,101373.93
2023-04-26T13:56:07.816Z,101368.30
2023-04-26T13:58:35.954Z,101368.59
2023-04-26T14:01:04.650Z,101363.40
2023-04-26T14:03:33.236Z,101353.46
2023-04-26T14:06:04.477Z,101357.45
2023-04-26T14:08:32.606Z,101358.13
2023-04-26T14:11:00.662Z,101355.09
2023-04-26T14:13:28.659Z,101361.21
2023-04-26T14:15:57.132Z,101351.56
2023-04-26T14:18:25.435Z,101353.23
2023-04-26T14:20:53.776Z,101356.96
2023-04-26T14:23:21.863Z,101358.52
2023-04-26T14:25:53.704Z,101360.88
2023-04-26T14:28:22.048Z,101363.37
2023-04-26T14:30:50.117Z,101358.20
2023-04-26T14:33:18.188Z,101356.14
2023-04-26T14:35:46.272Z,101359.84
2023-04-26T14:38:14.581Z,101361.44
2023-04-26T14:40:42.760Z,101360.39
2023-04-26T14:43:10.778Z,101362.16
2023-04-26T14:45:44.506Z,101359.84
2023-04-26T14:48:13.839Z,101362.48
2023-04-26T14:50:42.220Z,101354.60
2023-04-26T14:53:11.245Z,101356.83
2023-04-26T14:55:39.524Z,101357.84
2023-04-26T14:58:07.668Z,101361.99
2023-04-26T15:00:35.871Z,101358.82
2023-04-26T15:03:04.286Z,101361.37
2023-04-26T15:05:33.190Z,101364.87
2023-04-26T15:08:01.201Z,101358.92
2023-04-26T15:10:29.485Z,101352.34
2023-04-26T15:12:57.780Z,101349.08
2023-04-26T15:15:25.901Z,101356.04
2023-04-26T15:17:54.243Z,101354.54
2023-04-26T15:20:22.406Z,101355.26
2023-04-26T15:22:50.375Z,101357.16
2023-04-26T15:25:18.555Z,101365.91
2023-04-26T15:27:48.221Z,101356.23
2023-04-26T15:30:16.294Z,101359.84
2023-04-26T15:32:44.617Z,101356.76
2023-04-26T15:35:15.060Z,101356.76
2023-04-26T15:37:43.392Z,101357.09
2023-04-26T15:40:11.943Z,101356.40
2023-04-26T15:42:40.478Z,101352.84
2023-04-26T15:45:09.151Z,101357.02
2023-04-26T15:47:38.554Z,101354.15
2023-04-26T15:50:07.417Z,101350.78
2023-04-26T15:52:38.934Z,101345.87
2023-04-26T15:55:11.216Z,101345.41
2023-04-26T15:57:39.425Z,101336.33
2023-04-26T16:00:11.016Z,101340.84
2023-04-26T16:02:39.216Z,101347.18
2023-04-26T16:05:09.533Z,101348.20
2023-04-26T16:07:40.030Z,101351.63
2023-04-26T16:10:09.788Z,101342.80
2023-04-26T17:04:52.104Z,101343.20
2023-04-26T17:07:20.232Z,101341.03
2023-04-26T17:09:48.262Z,101344.73
2023-04-26T17:12:16.331Z,101354.05
2023-04-26T17:14:44.406Z,101353.23
2023-04-26T17:17:12.444Z,101348.20
2023-04-26T17:19:40.466Z,101352.25
2023-04-26T17:22:08.614Z,101347.61
2023-04-26T17:24:37.097Z,101343.88
2023-04-26T17:27:08.145Z,101349.14
2023-04-26T17:29:36.567Z,101347.84
2023-04-26T17:32:04.750Z,101346.88
2023-04-26T17:34:33.931Z,101356.53
2023-04-26T17:37:02.029Z,101359.28
2023-04-26T17:39:30.122Z,101354.63
2023-04-26T17:41:58.123Z,101357.84
2023-04-26T17:44:26.233Z,101369.19
2023-04-26T17:46:54.331Z,101377.33
2023-04-26T17:49:26.812Z,101369.91
2023-04-26T17:51:54.899Z,101369.38
2023-04-26T17:54:22.946Z,101383.12
2023-04-26T17:56:51.061Z,101369.74
2023-04-26T17:59:19.077Z,101387.98
2023-04-26T18:01:47.341Z,101391.23
2023-04-26T18:04:15.581Z,101385.11
2023-04-26T18:06:45.369Z,101383.90
2023-04-26T18:09:13.398Z,101382.76
2023-04-26T18:11:41.440Z,101387.40
2023-04-26T18:14:09.521Z,101390.27
2023-04-26T18:16:37.899Z,101395.87
2023-04-26T18:19:05.925Z,101396.59
2023-04-26T18:21:33.980Z,101396.59
2023-04-26T18:24:02.293Z,101398.12
2023-04-26T18:26:31.221Z,101406.46
2023-04-26T18:28:59.793Z,101407.38
2023-04-26T18:31:28.509Z,101408.45
2023-04-26T18:33:57.344Z,101407.34
2023-04-26T18:36:25.334Z,101409.86
2023-04-26T18:38:53.265Z,101410.19
2023-04-26T18:41:21.214Z,101410.91
2023-04-26T18:43:49.249Z,101411.13
2023-04-26T18:46:17.622Z,101411.46
2023-04-26T18:48:45.755Z,101425.29
2023-04-26T18:51:13.877Z,101419.11
2023-04-26T18:53:41.927Z,101417.77
2023-04-26T18:56:09.920Z,101420.98
2023-04-26T18:58:38.259Z,101420.48
2023-04-26T19:01:06.399Z,101420.84
2023-04-26T19:03:34.717Z,101432.16
2023-04-26T19:06:02.834Z,101435.59
2023-04-26T19:08:30.874Z,101435.30
2023-04-26T19:10:59.092Z,101430.27
2023-04-26T19:13:27.124Z,101441.74
2023-04-26T19:15:55.105Z,101438.99
2023-04-26T19:18:23.273Z,101446.55
2023-04-26T19:20:51.422Z,101445.20
2023-04-26T19:23:19.670Z,101452.95
2023-04-26T19:25:48.248Z,101454.16
2023-04-26T19:28:17.520Z,101457.73
2023-04-26T19:30:45.650Z,101455.18
2023-04-26T19:33:13.772Z,101460.08
2023-04-26T19:35:41.780Z,101452.70
2023-04-26T19:38:11.210Z,101460.44
2023-04-26T19:40:40.091Z,101462.80
2023-04-26T19:43:08.094Z,101461.48
2023-04-26T19:45:36.253Z,101468.02
2023-04-26T19:48:04.687Z,101463.19
2023-04-26T19:50:32.680Z,101464.01
2023-04-26T19:53:00.723Z,101466.03
2023-04-26T19:55:30.694Z,101472.60
2023-04-26T19:58:00.705Z,101472.60
2023-04-26T20:00:31.353Z,101475.80
2023-04-26T20:03:00.258Z,101478.33
2023-04-26T20:05:28.389Z,101472.48
2023-04-26T20:07:56.461Z,101475.64
2023-04-26T20:10:24.588Z,101482.22
2023-04-26T20:12:53.391Z,101475.16
2023-04-26T20:15:21.529Z,101480.42
2023-04-26T20:17:49.860Z,101475.38
2023-04-26T20:20:17.889Z,101477.21
2023-04-26T20:22:45.926Z,101477.90
2023-04-26T20:25:14.335Z,101490.91
2023-04-26T20:27:42.771Z,101491.77
2023-04-26T20:30:11.421Z,101491.60
2023-04-26T20:32:39.614Z,101485.39
2023-04-26T20:35:08.296Z,101492.77
2023-04-26T20:37:37.186Z,101486.89
2023-04-26T20:40:06.374Z,101488.56
2023-04-26T20:42:34.376Z,101490.13
2023-04-26T20:45:05.199Z,101483.52
2023-04-26T20:47:33.419Z,101486.76
2023-04-26T20:50:01.454Z,101489.93
2023-04-26T20:52:29.627Z,101496.87
2023-04-26T20:54:58.632Z,101493.98
2023-04-26T20:57:27.281Z,101509.52
2023-04-26T20:59:55.286Z,101512.69
2023-04-26T21:02:23.465Z,101506.97
2023-04-26T21:04:51.757Z,101505.13
2023-04-26T21:07:19.876Z,101502.95
2023-04-26T21:09:47.989Z,101502.09
2023-04-26T21:12:16.032Z,101506.97
2023-04-26T21:14:47.051Z,101508.99
2023-04-26T21:17:15.894Z,101503.47
2023-04-26T21:19:44.118Z,101502.62
2023-04-26T21:22:12.246Z,101506.15
2023-04-26T21:24:40.332Z,101498.59
2023-04-26T21:27:08.260Z,101505.53
2023-04-26T21:29:36.246Z,101513.77
2023-04-26T21:32:04.286Z,101509.75
2023-04-26T21:34:32.241Z,101509.42
2023-04-26T21:37:00.342Z,101502.36
2023-04-26T21:39:28.330Z,101505.56
2023-04-26T21:41:56.372Z,101508.41
2023-04-26T21:44:24.424Z,101503.01
2023-04-26T21:46:52.541Z,101514.00
2023-04-26T21:49:20.655Z,101506.58
2023-04-26T21:51:48.692Z,101502.03
2023-04-26T21:54:16.679Z,101509.95
2023-04-26T21:56:44.643Z,101508.27
2023-04-26T21:59:13.318Z,101503.37
2023-04-26T22:01:41.394Z,101512.30
2023-04-26T22:04:09.669Z,101513.48
2023-04-26T22:06:37.823Z,101513.15
2023-04-26T22:09:06.178Z,101513.15
2023-04-26T22:11:34.174Z,101516.48
2023-04-26T22:14:02.461Z,101513.64
2023-04-26T22:16:30.497Z,101511.97
2023-04-26T22:18:58.463Z,101514.65
2023-04-26T22:21:26.620Z,101522.07
2023-04-26T22:23:55.030Z,101525.60
2023-04-26T22:26:23.021Z,101524.27
2023-04-26T22:28:51.000Z,101528.80
2023-04-26T22:31:19.008Z,101529.13
2023-04-26T22:33:47.259Z,101538.91
2023-04-26T22:36:15.283Z,101522.89
2023-04-26T22:38:43.318Z,101531.33
2023-04-26T22:41:11.324Z,101534.17
2023-04-26T22:43:39.378Z,101537.41
2023-04-26T22:46:07.387Z,101540.25
2023-04-26T22:48:35.462Z,101539.08
2023-04-26T22:51:03.710Z,101550.84
2023-04-26T22:53:31.732Z,101553.04
2023-04-26T22:55:59.704Z,101556.57
2023-04-26T22:58:27.877Z,101552.38
2023-04-26T23:00:55.976Z,101561.93
2023-04-26T23:03:24.245Z,101562.98
2023-04-26T23:05:52.577Z,101557.91
2023-04-26T23:08:20.579Z,101562.29
2023-04-26T23:10:48.675Z,101562.95
2023-04-26T23:13:17.508Z,101562.29
2023-04-26T23:15:45.644Z,101555.03
2023-04-26T23:18:13.650Z,101554.54
2023-04-26T23:20:41.610Z,101557.22
2023-04-26T23:23:09.599Z,101567.65
2023-04-26T23:25:37.797Z,101564.80
2023-04-26T23:28:05.936Z,101562.95
2023-04-26T23:30:33.894Z,101565.79
2023-04-26T23:33:01.916Z,101564.12
2023-04-26T23:35:29.927Z,101566.45
2023-04-26T23:37:57.922Z,101552.52
2023-04-26T23:40:25.942Z,101571.84
2023-04-26T23:42:54.023Z,101572.69
2023-04-26T23:45:22.046Z,101566.45
2023-04-26T23:47:50.192Z,101572.16
2023-04-26T23:50:18.133Z,101565.98
2023-04-26T23:52:46.166Z,101575.20
2023-04-26T23:55:14.137Z,101573.02
2023-04-26T23:57:42.138Z,101569.65
